sensor_id;sensor_type;location;lat;lon;timestamp;P1;durP1;ratioP1;P2;durP2;ratioP2
15645;SDS011;7922;43.622;1.476;2023-05-07T00:01:25;6.40;;;5.00;;
15645;SDS011;7922;43.622;1.476;2023-05-07T00:03:50;8.27;;;5.37;;
15645;SDS011;7922;43.622;1.476;2023-05-07T00:06:16;8.40;;;5.40;;
15645;SDS011;7922;43.622;1.476;2023-05-07T00:08:41;10.00;;;4.93;;
15645;SDS011;7922;43.622;1.476;2023-05-07T00:11:06;7.07;;;5.20;;
15645;SDS011;7922;43.622;1.476;2023-05-07T00:13:31;7.73;;;4.93;;
15645;SDS011;7922;43.622;1.476;2023-05-07T00:15:57;5.47;;;4.73;;
15645;SDS011;7922;43.622;1.476;2023-05-07T00:18:22;9.10;;;4.70;;
15645;SDS011;7922;43.622;1.476;2023-05-07T00:20:47;9.83;;;4.90;;
15645;SDS011;7922;43.622;1.476;2023-05-07T00:23:12;10.50;;;5.40;;
15645;SDS011;7922;43.622;1.476;2023-05-07T00:25:38;7.67;;;5.30;;
15645;SDS011;7922;43.622;1.476;2023-05-07T00:28:03;7.47;;;5.33;;
15645;SDS011;7922;43.622;1.476;2023-05-07T00:30:28;6.10;;;4.90;;
15645;SDS011;7922;43.622;1.476;2023-05-07T00:32:54;9.63;;;5.77;;
15645;SDS011;7922;43.622;1.476;2023-05-07T00:35:19;10.50;;;5.60;;
15645;SDS011;7922;43.622;1.476;2023-05-07T00:37:44;6.40;;;4.70;;
15645;SDS011;7922;43.622;1.476;2023-05-07T00:40:10;7.23;;;4.73;;
15645;SDS011;7922;43.622;1.476;2023-05-07T00:42:35;7.13;;;4.63;;
15645;SDS011;7922;43.622;1.476;2023-05-07T00:45:00;8.73;;;4.93;;
15645;SDS011;7922;43.622;1.476;2023-05-07T00:47:26;9.13;;;4.70;;
15645;SDS011;7922;43.622;1.476;2023-05-07T00:49:51;7.03;;;4.70;;
15645;SDS011;7922;43.622;1.476;2023-05-07T00:52:17;8.50;;;5.10;;
15645;SDS011;7922;43.622;1.476;2023-05-07T00:54:47;14.00;;;5.77;;
15645;SDS011;7922;43.622;1.476;2023-05-07T00:57:13;6.47;;;4.60;;
15645;SDS011;7922;43.622;1.476;2023-05-07T00:59:39;8.33;;;4.70;;
15645;SDS011;7922;43.622;1.476;2023-05-07T01:02:06;7.97;;;4.80;;
15645;SDS011;7922;43.622;1.476;2023-05-07T01:04:31;7.00;;;4.70;;
15645;SDS011;7922;43.622;1.476;2023-05-07T01:06:57;8.77;;;5.07;;
15645;SDS011;7922;43.622;1.476;2023-05-07T01:09:24;7.83;;;4.80;;
15645;SDS011;7922;43.622;1.476;2023-05-07T01:11:50;6.20;;;4.43;;
15645;SDS011;7922;43.622;1.476;2023-05-07T01:14:16;9.73;;;4.90;;
15645;SDS011;7922;43.622;1.476;2023-05-07T01:16:42;10.13;;;4.63;;
15645;SDS011;7922;43.622;1.476;2023-05-07T01:19:08;8.23;;;4.33;;
15645;SDS011;7922;43.622;1.476;2023-05-07T01:21:34;6.00;;;4.00;;
15645;SDS011;7922;43.622;1.476;2023-05-07T01:24:02;9.53;;;4.67;;
15645;SDS011;7922;43.622;1.476;2023-05-07T01:26:28;8.40;;;4.40;;
15645;SDS011;7922;43.622;1.476;2023-05-07T01:28:53;7.03;;;4.43;;
15645;SDS011;7922;43.622;1.476;2023-05-07T01:31:18;6.27;;;4.10;;
15645;SDS011;7922;43.622;1.476;2023-05-07T01:33:44;10.33;;;4.40;;
15645;SDS011;7922;43.622;1.476;2023-05-07T01:36:12;9.27;;;3.93;;
15645;SDS011;7922;43.622;1.476;2023-05-07T01:38:39;11.03;;;4.23;;
15645;SDS011;7922;43.622;1.476;2023-05-07T01:41:05;5.50;;;4.47;;
15645;SDS011;7922;43.622;1.476;2023-05-07T01:43:31;7.77;;;4.13;;
15645;SDS011;7922;43.622;1.476;2023-05-07T01:45:57;7.87;;;3.90;;
15645;SDS011;7922;43.622;1.476;2023-05-07T01:48:24;5.87;;;3.57;;
15645;SDS011;7922;43.622;1.476;2023-05-07T01:50:49;8.20;;;3.73;;
15645;SDS011;7922;43.622;1.476;2023-05-07T01:53:15;7.40;;;4.10;;
15645;SDS011;7922;43.622;1.476;2023-05-07T01:55:40;11.87;;;3.97;;
15645;SDS011;7922;43.622;1.476;2023-05-07T01:58:06;6.33;;;3.90;;
15645;SDS011;7922;43.622;1.476;2023-05-07T02:00:31;8.20;;;3.67;;
15645;SDS011;7922;43.622;1.476;2023-05-07T02:02:57;8.73;;;3.83;;
15645;SDS011;7922;43.622;1.476;2023-05-07T02:05:22;8.70;;;3.77;;
15645;SDS011;7922;43.622;1.476;2023-05-07T02:07:48;6.53;;;3.50;;
15645;SDS011;7922;43.622;1.476;2023-05-07T02:10:13;5.67;;;3.17;;
15645;SDS011;7922;43.622;1.476;2023-05-07T02:12:38;9.73;;;4.00;;
15645;SDS011;7922;43.622;1.476;2023-05-07T02:15:04;6.80;;;3.50;;
15645;SDS011;7922;43.622;1.476;2023-05-07T02:17:30;10.57;;;4.23;;
15645;SDS011;7922;43.622;1.476;2023-05-07T02:19:55;6.63;;;3.37;;
15645;SDS011;7922;43.622;1.476;2023-05-07T02:22:20;8.60;;;4.20;;
15645;SDS011;7922;43.622;1.476;2023-05-07T02:24:45;8.60;;;4.00;;
15645;SDS011;7922;43.622;1.476;2023-05-07T02:27:11;10.07;;;3.80;;
15645;SDS011;7922;43.622;1.476;2023-05-07T02:29:36;7.93;;;3.27;;
15645;SDS011;7922;43.622;1.476;2023-05-07T02:32:01;9.53;;;3.40;;
15645;SDS011;7922;43.622;1.476;2023-05-07T02:34:26;10.13;;;3.33;;
15645;SDS011;7922;43.622;1.476;2023-05-07T02:36:52;6.73;;;3.70;;
15645;SDS011;7922;43.622;1.476;2023-05-07T02:39:17;7.40;;;3.70;;
15645;SDS011;7922;43.622;1.476;2023-05-07T02:41:42;10.50;;;3.90;;
15645;SDS011;7922;43.622;1.476;2023-05-07T02:44:07;8.70;;;3.80;;
15645;SDS011;7922;43.622;1.476;2023-05-07T02:46:33;8.90;;;3.40;;
15645;SDS011;7922;43.622;1.476;2023-05-07T02:48:58;5.73;;;4.00;;
15645;SDS011;7922;43.622;1.476;2023-05-07T02:51:23;6.90;;;3.53;;
15645;SDS011;7922;43.622;1.476;2023-05-07T02:53:50;5.33;;;3.23;;
15645;SDS011;7922;43.622;1.476;2023-05-07T02:56:16;7.53;;;3.97;;
15645;SDS011;7922;43.622;1.476;2023-05-07T02:58:41;9.10;;;3.83;;
15645;SDS011;7922;43.622;1.476;2023-05-07T03:01:06;9.50;;;4.30;;
15645;SDS011;7922;43.622;1.476;2023-05-07T03:03:32;8.83;;;3.77;;
15645;SDS011;7922;43.622;1.476;2023-05-07T03:05:57;7.47;;;3.90;;
15645;SDS011;7922;43.622;1.476;2023-05-07T03:08:22;6.60;;;3.83;;
15645;SDS011;7922;43.622;1.476;2023-05-07T03:10:48;10.17;;;4.00;;
15645;SDS011;7922;43.622;1.476;2023-05-07T03:13:13;8.73;;;3.40;;
15645;SDS011;7922;43.622;1.476;2023-05-07T03:15:38;6.63;;;3.40;;
15645;SDS011;7922;43.622;1.476;2023-05-07T03:18:03;6.27;;;3.43;;
15645;SDS011;7922;43.622;1.476;2023-05-07T03:20:29;8.33;;;3.70;;
15645;SDS011;7922;43.622;1.476;2023-05-07T03:22:54;10.77;;;3.87;;
15645;SDS011;7922;43.622;1.476;2023-05-07T03:25:19;6.47;;;3.57;;
15645;SDS011;7922;43.622;1.476;2023-05-07T03:27:45;6.83;;;3.33;;
15645;SDS011;7922;43.622;1.476;2023-05-07T03:30:10;9.77;;;4.50;;
15645;SDS011;7922;43.622;1.476;2023-05-07T03:32:36;10.27;;;3.50;;
15645;SDS011;7922;43.622;1.476;2023-05-07T03:35:01;8.03;;;3.83;;
15645;SDS011;7922;43.622;1.476;2023-05-07T03:37:27;11.57;;;4.40;;
15645;SDS011;7922;43.622;1.476;2023-05-07T03:39:52;9.07;;;4.00;;
15645;SDS011;7922;43.622;1.476;2023-05-07T03:42:17;7.37;;;3.67;;
15645;SDS011;7922;43.622;1.476;2023-05-07T03:44:42;9.50;;;3.57;;
15645;SDS011;7922;43.622;1.476;2023-05-07T03:47:08;8.10;;;3.73;;
15645;SDS011;7922;43.622;1.476;2023-05-07T03:49:33;10.83;;;3.90;;
15645;SDS011;7922;43.622;1.476;2023-05-07T03:51:58;10.13;;;4.07;;
15645;SDS011;7922;43.622;1.476;2023-05-07T03:54:24;8.80;;;3.87;;
15645;SDS011;7922;43.622;1.476;2023-05-07T03:56:49;14.43;;;4.00;;
15645;SDS011;7922;43.622;1.476;2023-05-07T03:59:14;8.43;;;4.30;;
15645;SDS011;7922;43.622;1.476;2023-05-07T04:01:40;8.57;;;3.50;;
15645;SDS011;7922;43.622;1.476;2023-05-07T04:04:05;8.13;;;3.77;;
15645;SDS011;7922;43.622;1.476;2023-05-07T04:06:30;10.13;;;4.00;;
15645;SDS011;7922;43.622;1.476;2023-05-07T04:08:56;8.40;;;3.57;;
15645;SDS011;7922;43.622;1.476;2023-05-07T04:11:21;8.30;;;4.13;;
15645;SDS011;7922;43.622;1.476;2023-05-07T04:13:46;8.37;;;3.70;;
15645;SDS011;7922;43.622;1.476;2023-05-07T04:16:12;11.27;;;4.10;;
15645;SDS011;7922;43.622;1.476;2023-05-07T04:18:37;11.73;;;3.80;;
15645;SDS011;7922;43.622;1.476;2023-05-07T04:21:03;7.57;;;3.40;;
15645;SDS011;7922;43.622;1.476;2023-05-07T04:23:28;9.27;;;4.07;;
15645;SDS011;7922;43.622;1.476;2023-05-07T04:25:53;10.27;;;4.30;;
15645;SDS011;7922;43.622;1.476;2023-05-07T04:28:19;9.07;;;4.20;;
15645;SDS011;7922;43.622;1.476;2023-05-07T04:30:44;11.93;;;3.40;;
15645;SDS011;7922;43.622;1.476;2023-05-07T04:33:09;10.10;;;4.50;;
15645;SDS011;7922;43.622;1.476;2023-05-07T04:35:35;9.90;;;4.00;;
15645;SDS011;7922;43.622;1.476;2023-05-07T04:38:00;5.03;;;3.30;;
15645;SDS011;7922;43.622;1.476;2023-05-07T04:40:25;9.57;;;3.40;;
15645;SDS011;7922;43.622;1.476;2023-05-07T04:42:51;9.27;;;3.50;;
15645;SDS011;7922;43.622;1.476;2023-05-07T04:45:16;8.83;;;3.73;;
15645;SDS011;7922;43.622;1.476;2023-05-07T04:47:41;10.63;;;3.90;;
15645;SDS011;7922;43.622;1.476;2023-05-07T04:50:07;9.10;;;3.90;;
15645;SDS011;7922;43.622;1.476;2023-05-07T04:52:32;8.90;;;3.50;;
15645;SDS011;7922;43.622;1.476;2023-05-07T04:55:00;6.87;;;3.30;;
15645;SDS011;7922;43.622;1.476;2023-05-07T04:57:26;10.33;;;4.17;;
15645;SDS011;7922;43.622;1.476;2023-05-07T04:59:52;7.87;;;3.67;;
15645;SDS011;7922;43.622;1.476;2023-05-07T05:02:17;7.83;;;3.63;;
15645;SDS011;7922;43.622;1.476;2023-05-07T05:04:42;6.80;;;3.53;;
15645;SDS011;7922;43.622;1.476;2023-05-07T05:07:08;8.60;;;3.43;;
15645;SDS011;7922;43.622;1.476;2023-05-07T05:09:33;7.83;;;3.50;;
15645;SDS011;7922;43.622;1.476;2023-05-07T05:11:58;10.23;;;3.60;;
15645;SDS011;7922;43.622;1.476;2023-05-07T05:14:24;10.40;;;4.20;;
15645;SDS011;7922;43.622;1.476;2023-05-07T05:16:49;9.33;;;3.33;;
15645;SDS011;7922;43.622;1.476;2023-05-07T05:19:15;10.10;;;3.80;;
15645;SDS011;7922;43.622;1.476;2023-05-07T05:21:40;5.93;;;3.60;;
15645;SDS011;7922;43.622;1.476;2023-05-07T05:24:05;7.60;;;3.77;;
15645;SDS011;7922;43.622;1.476;2023-05-07T05:26:31;12.00;;;4.10;;
15645;SDS011;7922;43.622;1.476;2023-05-07T05:28:56;9.17;;;4.23;;
15645;SDS011;7922;43.622;1.476;2023-05-07T05:31:21;7.27;;;3.43;;
15645;SDS011;7922;43.622;1.476;2023-05-07T05:33:46;7.30;;;3.57;;
15645;SDS011;7922;43.622;1.476;2023-05-07T05:36:12;14.60;;;4.20;;
15645;SDS011;7922;43.622;1.476;2023-05-07T05:38:37;7.87;;;3.70;;
15645;SDS011;7922;43.622;1.476;2023-05-07T05:41:02;9.40;;;4.10;;
15645;SDS011;7922;43.622;1.476;2023-05-07T05:43:28;9.33;;;3.57;;
15645;SDS011;7922;43.622;1.476;2023-05-07T05:45:54;9.10;;;4.03;;
15645;SDS011;7922;43.622;1.476;2023-05-07T05:48:20;9.50;;;3.60;;
15645;SDS011;7922;43.622;1.476;2023-05-07T05:50:45;7.03;;;3.83;;
15645;SDS011;7922;43.622;1.476;2023-05-07T05:53:11;7.27;;;3.43;;
15645;SDS011;7922;43.622;1.476;2023-05-07T05:55:36;11.40;;;3.90;;
15645;SDS011;7922;43.622;1.476;2023-05-07T05:58:02;8.30;;;3.90;;
15645;SDS011;7922;43.622;1.476;2023-05-07T06:00:28;9.27;;;4.07;;
15645;SDS011;7922;43.622;1.476;2023-05-07T06:02:53;10.93;;;3.63;;
15645;SDS011;7922;43.622;1.476;2023-05-07T06:05:18;6.37;;;3.30;;
15645;SDS011;7922;43.622;1.476;2023-05-07T06:07:44;9.50;;;3.77;;
15645;SDS011;7922;43.622;1.476;2023-05-07T06:10:09;10.07;;;3.30;;
15645;SDS011;7922;43.622;1.476;2023-05-07T06:12:35;8.57;;;3.43;;
15645;SDS011;7922;43.622;1.476;2023-05-07T06:15:00;8.50;;;3.67;;
15645;SDS011;7922;43.622;1.476;2023-05-07T06:17:25;8.70;;;3.63;;
15645;SDS011;7922;43.622;1.476;2023-05-07T06:19:51;8.77;;;3.87;;
15645;SDS011;7922;43.622;1.476;2023-05-07T06:22:17;9.03;;;3.80;;
15645;SDS011;7922;43.622;1.476;2023-05-07T06:24:42;10.77;;;3.80;;
15645;SDS011;7922;43.622;1.476;2023-05-07T06:27:07;8.83;;;3.80;;
15645;SDS011;7922;43.622;1.476;2023-05-07T06:29:33;9.13;;;4.30;;
15645;SDS011;7922;43.622;1.476;2023-05-07T06:32:05;11.50;;;3.63;;
15645;SDS011;7922;43.622;1.476;2023-05-07T06:34:34;10.53;;;3.87;;
15645;SDS011;7922;43.622;1.476;2023-05-07T06:37:00;8.50;;;3.47;;
15645;SDS011;7922;43.622;1.476;2023-05-07T06:39:25;9.10;;;3.57;;
15645;SDS011;7922;43.622;1.476;2023-05-07T06:41:50;7.33;;;3.37;;
15645;SDS011;7922;43.622;1.476;2023-05-07T06:44:16;10.03;;;3.90;;
15645;SDS011;7922;43.622;1.476;2023-05-07T06:46:41;7.73;;;3.73;;
15645;SDS011;7922;43.622;1.476;2023-05-07T06:49:06;9.63;;;3.57;;
15645;SDS011;7922;43.622;1.476;2023-05-07T06:51:32;10.53;;;3.93;;
15645;SDS011;7922;43.622;1.476;2023-05-07T06:53:57;11.33;;;4.47;;
15645;SDS011;7922;43.622;1.476;2023-05-07T06:56:22;9.53;;;3.17;;
15645;SDS011;7922;43.622;1.476;2023-05-07T06:58:48;9.43;;;3.80;;
15645;SDS011;7922;43.622;1.476;2023-05-07T07:01:13;9.23;;;4.27;;
15645;SDS011;7922;43.622;1.476;2023-05-07T07:03:38;10.40;;;3.30;;
15645;SDS011;7922;43.622;1.476;2023-05-07T07:06:03;10.80;;;4.40;;
15645;SDS011;7922;43.622;1.476;2023-05-07T07:08:29;9.53;;;3.77;;
15645;SDS011;7922;43.622;1.476;2023-05-07T07:10:54;7.67;;;3.67;;
15645;SDS011;7922;43.622;1.476;2023-05-07T07:13:19;6.33;;;3.60;;
15645;SDS011;7922;43.622;1.476;2023-05-07T07:15:45;10.43;;;3.57;;
15645;SDS011;7922;43.622;1.476;2023-05-07T07:18:10;12.13;;;4.23;;
15645;SDS011;7922;43.622;1.476;2023-05-07T07:20:35;12.43;;;3.83;;
15645;SDS011;7922;43.622;1.476;2023-05-07T07:23:00;9.67;;;3.80;;
15645;SDS011;7922;43.622;1.476;2023-05-07T07:25:26;11.73;;;3.80;;
15645;SDS011;7922;43.622;1.476;2023-05-07T07:27:51;11.20;;;4.10;;
15645;SDS011;7922;43.622;1.476;2023-05-07T07:30:16;11.17;;;3.60;;
15645;SDS011;7922;43.622;1.476;2023-05-07T07:32:42;8.93;;;4.23;;
15645;SDS011;7922;43.622;1.476;2023-05-07T07:35:07;10.53;;;3.83;;
15645;SDS011;7922;43.622;1.476;2023-05-07T07:37:33;8.63;;;3.20;;
15645;SDS011;7922;43.622;1.476;2023-05-07T07:39:58;8.20;;;3.40;;
15645;SDS011;7922;43.622;1.476;2023-05-07T07:42:23;7.00;;;3.77;;
15645;SDS011;7922;43.622;1.476;2023-05-07T07:44:49;9.03;;;3.60;;
15645;SDS011;7922;43.622;1.476;2023-05-07T07:47:14;9.53;;;4.00;;
15645;SDS011;7922;43.622;1.476;2023-05-07T07:49:39;8.83;;;3.73;;
15645;SDS011;7922;43.622;1.476;2023-05-07T07:52:04;12.80;;;3.73;;
15645;SDS011;7922;43.622;1.476;2023-05-07T07:54:30;8.77;;;3.13;;
15645;SDS011;7922;43.622;1.476;2023-05-07T07:56:55;7.10;;;4.20;;
15645;SDS011;7922;43.622;1.476;2023-05-07T07:59:20;11.27;;;3.93;;
15645;SDS011;7922;43.622;1.476;2023-05-07T08:01:46;11.37;;;3.97;;
15645;SDS011;7922;43.622;1.476;2023-05-07T08:04:11;10.10;;;3.87;;
15645;SDS011;7922;43.622;1.476;2023-05-07T08:06:36;10.37;;;3.90;;
15645;SDS011;7922;43.622;1.476;2023-05-07T08:09:01;9.43;;;3.97;;
15645;SDS011;7922;43.622;1.476;2023-05-07T08:11:27;10.17;;;4.03;;
15645;SDS011;7922;43.622;1.476;2023-05-07T08:13:53;6.97;;;3.20;;
15645;SDS011;7922;43.622;1.476;2023-05-07T08:16:19;10.87;;;4.13;;
15645;SDS011;7922;43.622;1.476;2023-05-07T08:18:44;8.63;;;3.70;;
15645;SDS011;7922;43.622;1.476;2023-05-07T08:21:09;11.30;;;3.47;;
15645;SDS011;7922;43.622;1.476;2023-05-07T08:23:35;12.20;;;4.17;;
15645;SDS011;7922;43.622;1.476;2023-05-07T08:26:00;10.33;;;3.50;;
15645;SDS011;7922;43.622;1.476;2023-05-07T08:28:25;8.43;;;3.30;;
15645;SDS011;7922;43.622;1.476;2023-05-07T08:30:51;7.37;;;3.30;;
15645;SDS011;7922;43.622;1.476;2023-05-07T08:33:16;9.00;;;3.57;;
15645;SDS011;7922;43.622;1.476;2023-05-07T08:35:41;8.27;;;3.40;;
15645;SDS011;7922;43.622;1.476;2023-05-07T08:38:07;12.47;;;3.83;;
15645;SDS011;7922;43.622;1.476;2023-05-07T08:40:34;12.80;;;4.13;;
15645;SDS011;7922;43.622;1.476;2023-05-07T08:43:02;7.77;;;3.37;;
15645;SDS011;7922;43.622;1.476;2023-05-07T08:45:30;9.97;;;3.30;;
15645;SDS011;7922;43.622;1.476;2023-05-07T08:47:58;6.93;;;3.17;;
15645;SDS011;7922;43.622;1.476;2023-05-07T08:50:26;10.43;;;3.10;;
15645;SDS011;7922;43.622;1.476;2023-05-07T08:52:51;7.20;;;3.07;;
15645;SDS011;7922;43.622;1.476;2023-05-07T08:55:17;6.87;;;2.97;;
15645;SDS011;7922;43.622;1.476;2023-05-07T08:57:43;9.20;;;3.60;;
15645;SDS011;7922;43.622;1.476;2023-05-07T09:00:08;8.03;;;3.27;;
15645;SDS011;7922;43.622;1.476;2023-05-07T09:02:35;8.47;;;3.33;;
15645;SDS011;7922;43.622;1.476;2023-05-07T09:05:00;9.20;;;3.40;;
15645;SDS011;7922;43.622;1.476;2023-05-07T09:07:26;7.63;;;3.47;;
15645;SDS011;7922;43.622;1.476;2023-05-07T09:09:51;8.73;;;3.07;;
15645;SDS011;7922;43.622;1.476;2023-05-07T09:12:17;6.40;;;2.90;;
15645;SDS011;7922;43.622;1.476;2023-05-07T09:14:43;6.40;;;2.73;;
15645;SDS011;7922;43.622;1.476;2023-05-07T09:17:08;10.30;;;3.37;;
15645;SDS011;7922;43.622;1.476;2023-05-07T09:19:33;7.70;;;3.03;;
15645;SDS011;7922;43.622;1.476;2023-05-07T09:21:59;6.90;;;3.50;;
15645;SDS011;7922;43.622;1.476;2023-05-07T09:24:26;8.00;;;3.10;;
15645;SDS011;7922;43.622;1.476;2023-05-07T09:26:51;7.80;;;2.87;;
15645;SDS011;7922;43.622;1.476;2023-05-07T09:29:16;7.27;;;2.77;;
15645;SDS011;7922;43.622;1.476;2023-05-07T09:31:42;7.00;;;2.93;;
15645;SDS011;7922;43.622;1.476;2023-05-07T09:34:07;4.83;;;2.80;;
15645;SDS011;7922;43.622;1.476;2023-05-07T09:36:32;8.77;;;3.70;;
15645;SDS011;7922;43.622;1.476;2023-05-07T09:39:01;8.37;;;3.07;;
15645;SDS011;7922;43.622;1.476;2023-05-07T09:41:26;9.23;;;3.53;;
15645;SDS011;7922;43.622;1.476;2023-05-07T09:43:54;7.70;;;3.03;;
15645;SDS011;7922;43.622;1.476;2023-05-07T09:46:21;8.37;;;3.50;;
15645;SDS011;7922;43.622;1.476;2023-05-07T09:48:52;7.97;;;3.30;;
15645;SDS011;7922;43.622;1.476;2023-05-07T09:51:22;6.60;;;3.50;;
15645;SDS011;7922;43.622;1.476;2023-05-07T09:54:10;7.00;;;3.03;;
15645;SDS011;7922;43.622;1.476;2023-05-07T09:56:36;10.03;;;3.00;;
15645;SDS011;7922;43.622;1.476;2023-05-07T09:59:03;7.13;;;3.10;;
15645;SDS011;7922;43.622;1.476;2023-05-07T10:01:30;8.03;;;3.13;;
15645;SDS011;7922;43.622;1.476;2023-05-07T10:03:56;5.20;;;3.13;;
15645;SDS011;7922;43.622;1.476;2023-05-07T10:06:23;10.07;;;3.40;;
15645;SDS011;7922;43.622;1.476;2023-05-07T10:08:50;7.23;;;3.10;;
15645;SDS011;7922;43.622;1.476;2023-05-07T10:11:17;9.70;;;3.67;;
15645;SDS011;7922;43.622;1.476;2023-05-07T10:13:42;7.40;;;3.73;;
15645;SDS011;7922;43.622;1.476;2023-05-07T10:16:08;8.33;;;2.90;;
15645;SDS011;7922;43.622;1.476;2023-05-07T10:18:33;8.37;;;3.40;;
15645;SDS011;7922;43.622;1.476;2023-05-07T10:21:01;8.83;;;3.40;;
15645;SDS011;7922;43.622;1.476;2023-05-07T10:23:31;9.53;;;3.50;;
15645;SDS011;7922;43.622;1.476;2023-05-07T10:25:57;12.10;;;3.77;;
15645;SDS011;7922;43.622;1.476;2023-05-07T10:28:23;12.60;;;3.40;;
15645;SDS011;7922;43.622;1.476;2023-05-07T10:33:34;7.27;;;3.20;;
15645;SDS011;7922;43.622;1.476;2023-05-07T10:36:02;11.00;;;3.63;;
15645;SDS011;7922;43.622;1.476;2023-05-07T10:38:28;10.87;;;3.30;;
15645;SDS011;7922;43.622;1.476;2023-05-07T10:40:54;6.33;;;2.87;;
15645;SDS011;7922;43.622;1.476;2023-05-07T10:43:19;7.93;;;3.00;;
15645;SDS011;7922;43.622;1.476;2023-05-07T10:51:27;8.73;;;3.47;;
15645;SDS011;7922;43.622;1.476;2023-05-07T10:56:37;8.57;;;3.50;;
15645;SDS011;7922;43.622;1.476;2023-05-07T11:04:17;8.13;;;3.93;;
15645;SDS011;7922;43.622;1.476;2023-05-07T11:07:02;9.53;;;3.53;;
15645;SDS011;7922;43.622;1.476;2023-05-07T11:12:16;6.90;;;2.73;;
15645;SDS011;7922;43.622;1.476;2023-05-07T11:14:43;9.47;;;3.33;;
15645;SDS011;7922;43.622;1.476;2023-05-07T11:17:09;7.07;;;2.53;;
15645;SDS011;7922;43.622;1.476;2023-05-07T11:19:48;8.63;;;3.70;;
15645;SDS011;7922;43.622;1.476;2023-05-07T11:25:09;8.90;;;2.97;;
15645;SDS011;7922;43.622;1.476;2023-05-07T11:27:35;10.00;;;3.30;;
15645;SDS011;7922;43.622;1.476;2023-05-07T11:30:00;7.47;;;3.10;;
15645;SDS011;7922;43.622;1.476;2023-05-07T11:32:29;8.20;;;2.70;;
15645;SDS011;7922;43.622;1.476;2023-05-07T11:34:59;5.37;;;3.17;;
15645;SDS011;7922;43.622;1.476;2023-05-07T11:37:25;8.77;;;3.10;;
15645;SDS011;7922;43.622;1.476;2023-05-07T11:40:02;6.77;;;3.23;;
15645;SDS011;7922;43.622;1.476;2023-05-07T11:42:37;9.97;;;3.43;;
15645;SDS011;7922;43.622;1.476;2023-05-07T11:45:04;7.47;;;3.20;;
15645;SDS011;7922;43.622;1.476;2023-05-07T11:47:31;8.13;;;3.30;;
15645;SDS011;7922;43.622;1.476;2023-05-07T11:49:56;8.37;;;3.07;;
15645;SDS011;7922;43.622;1.476;2023-05-07T11:52:26;8.70;;;3.17;;
15645;SDS011;7922;43.622;1.476;2023-05-07T11:54:52;5.97;;;2.90;;
15645;SDS011;7922;43.622;1.476;2023-05-07T11:57:19;6.90;;;2.77;;
15645;SDS011;7922;43.622;1.476;2023-05-07T11:59:45;8.07;;;2.57;;
15645;SDS011;7922;43.622;1.476;2023-05-07T12:02:10;5.87;;;2.63;;
15645;SDS011;7922;43.622;1.476;2023-05-07T12:04:38;6.00;;;3.30;;
15645;SDS011;7922;43.622;1.476;2023-05-07T12:07:03;6.57;;;2.70;;
15645;SDS011;7922;43.622;1.476;2023-05-07T12:09:29;6.80;;;2.70;;
15645;SDS011;7922;43.622;1.476;2023-05-07T12:11:54;7.67;;;2.70;;
15645;SDS011;7922;43.622;1.476;2023-05-07T12:14:19;6.67;;;2.40;;
15645;SDS011;7922;43.622;1.476;2023-05-07T12:16:44;5.53;;;2.70;;
15645;SDS011;7922;43.622;1.476;2023-05-07T12:19:10;6.47;;;2.57;;
15645;SDS011;7922;43.622;1.476;2023-05-07T12:21:36;9.03;;;2.73;;
15645;SDS011;7922;43.622;1.476;2023-05-07T12:24:01;4.83;;;2.30;;
15645;SDS011;7922;43.622;1.476;2023-05-07T12:26:27;5.00;;;2.73;;
15645;SDS011;7922;43.622;1.476;2023-05-07T12:28:52;7.93;;;2.50;;
15645;SDS011;7922;43.622;1.476;2023-05-07T12:31:17;8.73;;;2.70;;
15645;SDS011;7922;43.622;1.476;2023-05-07T12:33:43;4.73;;;2.13;;
15645;SDS011;7922;43.622;1.476;2023-05-07T12:36:08;7.63;;;2.57;;
15645;SDS011;7922;43.622;1.476;2023-05-07T12:38:34;6.57;;;2.40;;
15645;SDS011;7922;43.622;1.476;2023-05-07T12:41:03;5.60;;;2.50;;
15645;SDS011;7922;43.622;1.476;2023-05-07T12:43:29;5.60;;;2.33;;
15645;SDS011;7922;43.622;1.476;2023-05-07T12:45:55;7.17;;;2.60;;
15645;SDS011;7922;43.622;1.476;2023-05-07T12:48:22;6.73;;;2.37;;
15645;SDS011;7922;43.622;1.476;2023-05-07T12:50:51;6.13;;;2.70;;
15645;SDS011;7922;43.622;1.476;2023-05-07T12:53:19;5.60;;;2.83;;
15645;SDS011;7922;43.622;1.476;2023-05-07T12:55:53;5.10;;;2.33;;
15645;SDS011;7922;43.622;1.476;2023-05-07T12:58:20;6.13;;;2.63;;
15645;SDS011;7922;43.622;1.476;2023-05-07T13:00:53;6.10;;;2.10;;
15645;SDS011;7922;43.622;1.476;2023-05-07T13:03:21;5.17;;;2.27;;
15645;SDS011;7922;43.622;1.476;2023-05-07T13:05:47;7.47;;;2.87;;
15645;SDS011;7922;43.622;1.476;2023-05-07T13:08:22;5.83;;;2.33;;
15645;SDS011;7922;43.622;1.476;2023-05-07T13:10:49;5.67;;;2.40;;
15645;SDS011;7922;43.622;1.476;2023-05-07T13:13:14;5.10;;;2.40;;
15645;SDS011;7922;43.622;1.476;2023-05-07T13:15:39;4.83;;;2.30;;
15645;SDS011;7922;43.622;1.476;2023-05-07T13:18:05;7.10;;;2.67;;
15645;SDS011;7922;43.622;1.476;2023-05-07T13:20:30;5.67;;;1.97;;
15645;SDS011;7922;43.622;1.476;2023-05-07T13:22:55;4.40;;;2.20;;
15645;SDS011;7922;43.622;1.476;2023-05-07T13:25:20;5.10;;;2.60;;
15645;SDS011;7922;43.622;1.476;2023-05-07T13:27:46;7.97;;;2.30;;
15645;SDS011;7922;43.622;1.476;2023-05-07T13:30:11;6.63;;;2.23;;
15645;SDS011;7922;43.622;1.476;2023-05-07T13:32:36;4.60;;;2.23;;
15645;SDS011;7922;43.622;1.476;2023-05-07T13:35:02;5.83;;;1.97;;
15645;SDS011;7922;43.622;1.476;2023-05-07T13:37:27;4.60;;;2.13;;
15645;SDS011;7922;43.622;1.476;2023-05-07T13:39:52;6.37;;;2.70;;
15645;SDS011;7922;43.622;1.476;2023-05-07T13:42:18;3.87;;;2.13;;
15645;SDS011;7922;43.622;1.476;2023-05-07T13:44:43;5.50;;;2.07;;
15645;SDS011;7922;43.622;1.476;2023-05-07T13:47:08;3.33;;;1.83;;
15645;SDS011;7922;43.622;1.476;2023-05-07T13:49:33;5.13;;;2.27;;
15645;SDS011;7922;43.622;1.476;2023-05-07T13:51:59;5.23;;;1.93;;
15645;SDS011;7922;43.622;1.476;2023-05-07T13:54:24;4.80;;;2.30;;
15645;SDS011;7922;43.622;1.476;2023-05-07T13:56:49;4.73;;;1.97;;
15645;SDS011;7922;43.622;1.476;2023-05-07T13:59:15;7.03;;;2.20;;
15645;SDS011;7922;43.622;1.476;2023-05-07T14:01:40;5.27;;;2.50;;
15645;SDS011;7922;43.622;1.476;2023-05-07T14:04:05;5.43;;;2.03;;
15645;SDS011;7922;43.622;1.476;2023-05-07T14:06:30;5.83;;;2.30;;
15645;SDS011;7922;43.622;1.476;2023-05-07T14:08:56;5.50;;;2.27;;
15645;SDS011;7922;43.622;1.476;2023-05-07T14:11:21;4.33;;;2.17;;
15645;SDS011;7922;43.622;1.476;2023-05-07T14:13:46;5.60;;;2.20;;
15645;SDS011;7922;43.622;1.476;2023-05-07T14:16:12;4.57;;;2.03;;
15645;SDS011;7922;43.622;1.476;2023-05-07T14:18:37;4.67;;;2.13;;
15645;SDS011;7922;43.622;1.476;2023-05-07T14:21:04;4.77;;;2.23;;
15645;SDS011;7922;43.622;1.476;2023-05-07T14:23:30;4.73;;;1.70;;
15645;SDS011;7922;43.622;1.476;2023-05-07T14:25:55;6.53;;;2.40;;
15645;SDS011;7922;43.622;1.476;2023-05-07T14:28:20;2.77;;;1.63;;
15645;SDS011;7922;43.622;1.476;2023-05-07T14:30:46;5.27;;;1.97;;
15645;SDS011;7922;43.622;1.476;2023-05-07T14:33:11;3.83;;;1.83;;
15645;SDS011;7922;43.622;1.476;2023-05-07T14:35:37;3.90;;;2.30;;
15645;SDS011;7922;43.622;1.476;2023-05-07T14:38:02;4.80;;;2.10;;
15645;SDS011;7922;43.622;1.476;2023-05-07T14:40:27;4.33;;;2.00;;
15645;SDS011;7922;43.622;1.476;2023-05-07T14:42:52;5.20;;;2.13;;
15645;SDS011;7922;43.622;1.476;2023-05-07T14:45:18;3.57;;;2.03;;
15645;SDS011;7922;43.622;1.476;2023-05-07T14:47:43;4.93;;;2.47;;
15645;SDS011;7922;43.622;1.476;2023-05-07T14:50:08;7.83;;;2.37;;
15645;SDS011;7922;43.622;1.476;2023-05-07T14:52:34;4.07;;;2.07;;
15645;SDS011;7922;43.622;1.476;2023-05-07T14:54:59;5.20;;;2.33;;
15645;SDS011;7922;43.622;1.476;2023-05-07T14:57:24;4.47;;;2.20;;
15645;SDS011;7922;43.622;1.476;2023-05-07T14:59:50;4.20;;;2.20;;
15645;SDS011;7922;43.622;1.476;2023-05-07T15:02:15;5.07;;;2.60;;
15645;SDS011;7922;43.622;1.476;2023-05-07T15:04:41;4.03;;;2.20;;
15645;SDS011;7922;43.622;1.476;2023-05-07T15:07:06;4.27;;;1.70;;
15645;SDS011;7922;43.622;1.476;2023-05-07T15:09:31;3.17;;;1.90;;
15645;SDS011;7922;43.622;1.476;2023-05-07T15:11:57;6.27;;;2.13;;